sensor_id;sensor_type;location;lat;lon;timestamp;temperature;humidity
59309;DHT22;48433;53.016;-2.260;2023-04-10T00:00:11;9.80;99.90
59309;DHT22;48433;53.016;-2.260;2023-04-10T00:02:39;9.80;99.90
59309;DHT22;48433;53.016;-2.260;2023-04-10T00:05:07;9.90;99.90
59309;DHT22;48433;53.016;-2.260;2023-04-10T00:07:35;9.90;99.90
59309;DHT22;48433;53.016;-2.260;2023-04-10T00:10:03;9.90;99.90
59309;DHT22;48433;53.016;-2.260;2023-04-10T00:12:31;9.90;99.90
59309;DHT22;48433;53.016;-2.260;2023-04-10T00:14:58;9.90;99.90
59309;DHT22;48433;53.016;-2.260;2023-04-10T00:17:26;9.90;99.90
59309;DHT22;48433;53.016;-2.260;2023-04-10T00:19:54;9.90;99.90
59309;DHT22;48433;53.016;-2.260;2023-04-10T00:22:21;10.00;99.90
59309;DHT22;48433;53.016;-2.260;2023-04-10T00:24:49;9.90;99.90
59309;DHT22;48433;53.016;-2.260;2023-04-10T00:27:17;10.00;99.90
59309;DHT22;48433;53.016;-2.260;2023-04-10T00:29:44;10.00;99.90
59309;DHT22;48433;53.016;-2.260;2023-04-10T00:32:12;10.00;99.90
59309;DHT22;48433;53.016;-2.260;2023-04-10T00:34:40;10.00;99.90
59309;DHT22;48433;53.016;-2.260;2023-04-10T00:37:08;10.00;99.90
59309;DHT22;48433;53.016;-2.260;2023-04-10T00:39:35;10.00;99.90
59309;DHT22;48433;53.016;-2.260;2023-04-10T00:42:03;10.00;99.90
59309;DHT22;48433;53.016;-2.260;2023-04-10T00:44:35;10.00;99.90
59309;DHT22;48433;53.016;-2.260;2023-04-10T00:47:04;10.00;99.90
59309;DHT22;48433;53.016;-2.260;2023-04-10T00:49:33;10.10;99.90
59309;DHT22;48433;53.016;-2.260;2023-04-10T00:52:01;10.10;99.90
59309;DHT22;48433;53.016;-2.260;2023-04-10T00:54:30;10.10;99.90
59309;DHT22;48433;53.016;-2.260;2023-04-10T00:56:57;10.10;99.90
59309;DHT22;48433;53.016;-2.260;2023-04-10T00:59:26;10.10;99.90
59309;DHT22;48433;53.016;-2.260;2023-04-10T01:01:53;10.10;99.90
59309;DHT22;48433;53.016;-2.260;2023-04-10T01:04:22;10.10;99.90
59309;DHT22;48433;53.016;-2.260;2023-04-10T01:10:00;10.10;99.90
59309;DHT22;48433;53.016;-2.260;2023-04-10T01:12:49;10.10;99.90
59309;DHT22;48433;53.016;-2.260;2023-04-10T01:15:25;10.10;99.90
59309;DHT22;48433;53.016;-2.260;2023-04-10T01:20:37;10.00;99.90
59309;DHT22;48433;53.016;-2.260;2023-04-10T01:26:14;10.10;99.90
59309;DHT22;48433;53.016;-2.260;2023-04-10T01:32:01;10.10;99.90
59309;DHT22;48433;53.016;-2.260;2023-04-10T01:34:34;10.00;99.90
59309;DHT22;48433;53.016;-2.260;2023-04-10T01:37:04;10.00;99.90
59309;DHT22;48433;53.016;-2.260;2023-04-10T01:39:36;10.00;99.90
59309;DHT22;48433;53.016;-2.260;2023-04-10T01:42:06;9.90;99.90
59309;DHT22;48433;53.016;-2.260;2023-04-10T01:44:40;9.90;99.90
59309;DHT22;48433;53.016;-2.260;2023-04-10T01:47:09;9.80;99.90
59309;DHT22;48433;53.016;-2.260;2023-04-10T01:49:43;9.80;99.90
59309;DHT22;48433;53.016;-2.260;2023-04-10T01:52:14;9.70;99.90
59309;DHT22;48433;53.016;-2.260;2023-04-10T01:54:47;9.60;99.90
59309;DHT22;48433;53.016;-2.260;2023-04-10T01:57:22;9.60;99.90
59309;DHT22;48433;53.016;-2.260;2023-04-10T01:59:56;9.60;99.90
59309;DHT22;48433;53.016;-2.260;2023-04-10T02:02:24;9.60;99.90
59309;DHT22;48433;53.016;-2.260;2023-04-10T02:04:52;9.60;99.90
59309;DHT22;48433;53.016;-2.260;2023-04-10T02:07:27;9.60;99.90
59309;DHT22;48433;53.016;-2.260;2023-04-10T02:10:01;9.60;99.90
59309;DHT22;48433;53.016;-2.260;2023-04-10T02:12:38;9.60;99.90
59309;DHT22;48433;53.016;-2.260;2023-04-10T02:15:09;9.60;99.90
59309;DHT22;48433;53.016;-2.260;2023-04-10T02:17:38;9.60;99.90
59309;DHT22;48433;53.016;-2.260;2023-04-10T02:20:07;9.60;99.90
59309;DHT22;48433;53.016;-2.260;2023-04-10T02:22:37;9.60;99.90
59309;DHT22;48433;53.016;-2.260;2023-04-10T02:25:07;9.60;99.90
59309;DHT22;48433;53.016;-2.260;2023-04-10T02:27:36;9.50;99.90
59309;DHT22;48433;53.016;-2.260;2023-04-10T02:30:04;9.50;99.90
59309;DHT22;48433;53.016;-2.260;2023-04-10T02:32:34;9.50;99.90
59309;DHT22;48433;53.016;-2.260;2023-04-10T02:35:07;9.40;99.90
59309;DHT22;48433;53.016;-2.260;2023-04-10T02:37:36;9.40;99.90
59309;DHT22;48433;53.016;-2.260;2023-04-10T02:40:05;9.40;99.90
59309;DHT22;48433;53.016;-2.260;2023-04-10T02:42:42;9.40;99.90
59309;DHT22;48433;53.016;-2.260;2023-04-10T02:45:10;9.40;99.90
59309;DHT22;48433;53.016;-2.260;2023-04-10T02:47:42;9.40;99.90
59309;DHT22;48433;53.016;-2.260;2023-04-10T02:50:10;9.40;99.90
59309;DHT22;48433;53.016;-2.260;2023-04-10T02:52:41;9.40;99.90
59309;DHT22;48433;53.016;-2.260;2023-04-10T02:55:09;9.40;99.90
59309;DHT22;48433;53.016;-2.260;2023-04-10T02:57:40;9.40;99.90
59309;DHT22;48433;53.016;-2.260;2023-04-10T03:00:09;9.40;99.90
59309;DHT22;48433;53.016;-2.260;2023-04-10T03:03:09;9.40;99.90
59309;DHT22;48433;53.016;-2.260;2023-04-10T03:05:47;9.40;99.90
59309;DHT22;48433;53.016;-2.260;2023-04-10T03:08:24;9.50;99.90
59309;DHT22;48433;53.016;-2.260;2023-04-10T03:10:52;9.50;99.90
59309;DHT22;48433;53.016;-2.260;2023-04-10T03:13:19;9.50;99.90
59309;DHT22;48433;53.016;-2.260;2023-04-10T03:15:47;9.50;99.90
59309;DHT22;48433;53.016;-2.260;2023-04-10T03:18:15;9.50;99.90
59309;DHT22;48433;53.016;-2.260;2023-04-10T03:20:45;9.60;99.90
59309;DHT22;48433;53.016;-2.260;2023-04-10T03:23:13;9.60;99.90
59309;DHT22;48433;53.016;-2.260;2023-04-10T03:25:41;9.50;99.90
59309;DHT22;48433;53.016;-2.260;2023-04-10T03:28:10;9.50;99.90
59309;DHT22;48433;53.016;-2.260;2023-04-10T03:30:38;9.60;99.90
59309;DHT22;48433;53.016;-2.260;2023-04-10T03:33:05;9.60;99.90
59309;DHT22;48433;53.016;-2.260;2023-04-10T03:35:33;9.60;99.90
59309;DHT22;48433;53.016;-2.260;2023-04-10T03:38:01;9.60;99.90
59309;DHT22;48433;53.016;-2.260;2023-04-10T03:40:28;9.60;99.90
59309;DHT22;48433;53.016;-2.260;2023-04-10T03:42:56;9.60;99.90
59309;DHT22;48433;53.016;-2.260;2023-04-10T03:45:25;9.70;99.90
59309;DHT22;48433;53.016;-2.260;2023-04-10T03:47:52;9.70;99.90
59309;DHT22;48433;53.016;-2.260;2023-04-10T03:50:20;9.70;99.90
59309;DHT22;48433;53.016;-2.260;2023-04-10T03:52:56;9.70;99.90
59309;DHT22;48433;53.016;-2.260;2023-04-10T03:55:25;9.70;99.90
59309;DHT22;48433;53.016;-2.260;2023-04-10T03:57:54;9.70;99.90
59309;DHT22;48433;53.016;-2.260;2023-04-10T04:00:24;9.80;99.90
59309;DHT22;48433;53.016;-2.260;2023-04-10T04:03:06;9.80;99.90
59309;DHT22;48433;53.016;-2.260;2023-04-10T04:06:07;9.80;99.90
59309;DHT22;48433;53.016;-2.260;2023-04-10T04:08:42;9.80;99.90
59309;DHT22;48433;53.016;-2.260;2023-04-10T04:11:17;9.90;99.90
59309;DHT22;48433;53.016;-2.260;2023-04-10T04:14:01;9.90;99.90
59309;DHT22;48433;53.016;-2.260;2023-04-10T04:16:41;9.90;99.90
59309;DHT22;48433;53.016;-2.260;2023-04-10T04:19:27;9.90;99.90
59309;DHT22;48433;53.016;-2.260;2023-04-10T04:22:12;9.90;99.90
59309;DHT22;48433;53.016;-2.260;2023-04-10T04:25:06;9.90;99.90
59309;DHT22;48433;53.016;-2.260;2023-04-10T04:28:00;9.90;99.90
59309;DHT22;48433;53.016;-2.260;2023-04-10T04:30:47;9.90;99.90
59309;DHT22;48433;53.016;-2.260;2023-04-10T04:33:37;9.90;99.90
59309;DHT22;48433;53.016;-2.260;2023-04-10T04:36:25;9.90;99.90
59309;DHT22;48433;53.016;-2.260;2023-04-10T04:39:03;9.90;99.90
59309;DHT22;48433;53.016;-2.260;2023-04-10T04:41:51;9.90;99.90
59309;DHT22;48433;53.016;-2.260;2023-04-10T04:44:37;9.90;99.90
59309;DHT22;48433;53.016;-2.260;2023-04-10T04:47:29;9.90;99.90
59309;DHT22;48433;53.016;-2.260;2023-04-10T04:50:35;9.90;99.90
59309;DHT22;48433;53.016;-2.260;2023-04-10T04:53:03;10.00;99.90
59309;DHT22;48433;53.016;-2.260;2023-04-10T04:55:52;10.00;99.90
59309;DHT22;48433;53.016;-2.260;2023-04-10T04:58:36;10.00;99.90
59309;DHT22;48433;53.016;-2.260;2023-04-10T05:01:31;10.00;99.90
59309;DHT22;48433;53.016;-2.260;2023-04-10T05:04:17;10.00;99.90
59309;DHT22;48433;53.016;-2.260;2023-04-10T05:07:09;10.00;99.90
59309;DHT22;48433;53.016;-2.260;2023-04-10T05:09:46;10.00;99.90
59309;DHT22;48433;53.016;-2.260;2023-04-10T05:12:40;10.00;99.90
59309;DHT22;48433;53.016;-2.260;2023-04-10T05:15:35;10.00;99.90
59309;DHT22;48433;53.016;-2.260;2023-04-10T05:18:23;10.00;99.90
59309;DHT22;48433;53.016;-2.260;2023-04-10T05:21:11;10.00;99.90
59309;DHT22;48433;53.016;-2.260;2023-04-10T05:23:49;10.00;99.90
59309;DHT22;48433;53.016;-2.260;2023-04-10T05:26:49;10.00;99.90
59309;DHT22;48433;53.016;-2.260;2023-04-10T05:29:37;10.00;99.90
59309;DHT22;48433;53.016;-2.260;2023-04-10T05:32:31;10.00;99.90
59309;DHT22;48433;53.016;-2.260;2023-04-10T05:35:22;10.00;99.90
59309;DHT22;48433;53.016;-2.260;2023-04-10T05:38:08;10.00;99.90
59309;DHT22;48433;53.016;-2.260;2023-04-10T05:40:56;10.00;99.90
59309;DHT22;48433;53.016;-2.260;2023-04-10T05:43:37;10.00;99.90
59309;DHT22;48433;53.016;-2.260;2023-04-10T05:46:12;10.00;99.90
59309;DHT22;48433;53.016;-2.260;2023-04-10T05:49:02;10.00;99.90
59309;DHT22;48433;53.016;-2.260;2023-04-10T05:51:53;10.00;99.90
59309;DHT22;48433;53.016;-2.260;2023-04-10T05:54:39;10.10;99.90
59309;DHT22;48433;53.016;-2.260;2023-04-10T05:57:28;10.10;99.90
59309;DHT22;48433;53.016;-2.260;2023-04-10T06:00:15;10.10;99.90
59309;DHT22;48433;53.016;-2.260;2023-04-10T06:03:07;10.10;99.90
59309;DHT22;48433;53.016;-2.260;2023-04-10T06:05:45;10.10;99.90
59309;DHT22;48433;53.016;-2.260;2023-04-10T06:08:13;10.20;99.90
59309;DHT22;48433;53.016;-2.260;2023-04-10T06:10:41;10.20;99.90
59309;DHT22;48433;53.016;-2.260;2023-04-10T06:13:10;10.20;99.90
59309;DHT22;48433;53.016;-2.260;2023-04-10T06:15:38;10.20;99.90
59309;DHT22;48433;53.016;-2.260;2023-04-10T06:18:06;10.30;99.90
59309;DHT22;48433;53.016;-2.260;2023-04-10T06:20:36;10.30;99.90
59309;DHT22;48433;53.016;-2.260;2023-04-10T06:23:04;10.30;99.90
59309;DHT22;48433;53.016;-2.260;2023-04-10T06:25:33;10.30;99.90
59309;DHT22;48433;53.016;-2.260;2023-04-10T06:28:00;10.40;99.90
59309;DHT22;48433;53.016;-2.260;2023-04-10T06:30:28;10.40;99.90
59309;DHT22;48433;53.016;-2.260;2023-04-10T06:32:57;10.40;99.90
59309;DHT22;48433;53.016;-2.260;2023-04-10T06:35:25;10.40;99.90
59309;DHT22;48433;53.016;-2.260;2023-04-10T06:37:53;10.40;99.90
59309;DHT22;48433;53.016;-2.260;2023-04-10T06:40:21;10.40;99.90
59309;DHT22;48433;53.016;-2.260;2023-04-10T06:42:49;10.40;99.90
59309;DHT22;48433;53.016;-2.260;2023-04-10T06:45:29;10.40;99.90
59309;DHT22;48433;53.016;-2.260;2023-04-10T06:47:56;10.40;99.90
59309;DHT22;48433;53.016;-2.260;2023-04-10T06:50:24;10.40;99.90
59309;DHT22;48433;53.016;-2.260;2023-04-10T06:52:52;10.40;99.90
59309;DHT22;48433;53.016;-2.260;2023-04-10T06:55:22;10.40;99.90
59309;DHT22;48433;53.016;-2.260;2023-04-10T06:57:49;10.50;99.90
59309;DHT22;48433;53.016;-2.260;2023-04-10T07:00:18;10.50;99.90
59309;DHT22;48433;53.016;-2.260;2023-04-10T07:02:45;10.50;99.90
59309;DHT22;48433;53.016;-2.260;2023-04-10T07:05:14;10.50;99.90
59309;DHT22;48433;53.016;-2.260;2023-04-10T07:07:42;10.50;99.90
59309;DHT22;48433;53.016;-2.260;2023-04-10T07:10:10;10.50;99.90
59309;DHT22;48433;53.016;-2.260;2023-04-10T07:12:37;10.50;99.90
59309;DHT22;48433;53.016;-2.260;2023-04-10T07:15:06;10.50;99.90
59309;DHT22;48433;53.016;-2.260;2023-04-10T07:17:34;10.60;99.90
59309;DHT22;48433;53.016;-2.260;2023-04-10T07:20:02;10.60;99.90
59309;DHT22;48433;53.016;-2.260;2023-04-10T07:22:30;10.60;99.90
59309;DHT22;48433;53.016;-2.260;2023-04-10T07:24:59;10.70;99.90
59309;DHT22;48433;53.016;-2.260;2023-04-10T07:27:26;10.80;99.90
59309;DHT22;48433;53.016;-2.260;2023-04-10T07:29:54;10.90;99.90
59309;DHT22;48433;53.016;-2.260;2023-04-10T07:32:23;11.00;99.90
59309;DHT22;48433;53.016;-2.260;2023-04-10T07:34:51;11.10;99.90
59309;DHT22;48433;53.016;-2.260;2023-04-10T07:37:19;11.10;99.90
59309;DHT22;48433;53.016;-2.260;2023-04-10T07:39:46;11.20;99.90
59309;DHT22;48433;53.016;-2.260;2023-04-10T07:42:14;11.20;99.90
59309;DHT22;48433;53.016;-2.260;2023-04-10T07:44:42;11.20;99.90
59309;DHT22;48433;53.016;-2.260;2023-04-10T07:47:09;11.10;99.90
59309;DHT22;48433;53.016;-2.260;2023-04-10T07:49:37;11.10;99.90
59309;DHT22;48433;53.016;-2.260;2023-04-10T07:52:05;11.10;99.90
59309;DHT22;48433;53.016;-2.260;2023-04-10T07:54:33;11.10;99.90
59309;DHT22;48433;53.016;-2.260;2023-04-10T07:57:01;11.10;99.90
59309;DHT22;48433;53.016;-2.260;2023-04-10T07:59:29;11.10;99.90
59309;DHT22;48433;53.016;-2.260;2023-04-10T08:01:56;11.20;99.90
59309;DHT22;48433;53.016;-2.260;2023-04-10T08:04:24;11.20;99.90
59309;DHT22;48433;53.016;-2.260;2023-04-10T08:06:52;10.40;99.90
59309;DHT22;48433;53.016;-2.260;2023-04-10T08:09:20;11.30;99.90
59309;DHT22;48433;53.016;-2.260;2023-04-10T08:11:48;11.30;99.90
59309;DHT22;48433;53.016;-2.260;2023-04-10T08:14:16;11.50;99.90
59309;DHT22;48433;53.016;-2.260;2023-04-10T08:16:44;11.50;99.90
59309;DHT22;48433;53.016;-2.260;2023-04-10T08:19:12;11.60;99.90
59309;DHT22;48433;53.016;-2.260;2023-04-10T08:21:40;11.70;99.90
59309;DHT22;48433;53.016;-2.260;2023-04-10T08:24:08;11.90;99.90
59309;DHT22;48433;53.016;-2.260;2023-04-10T08:26:35;12.00;99.90
59309;DHT22;48433;53.016;-2.260;2023-04-10T08:29:03;12.10;99.90
59309;DHT22;48433;53.016;-2.260;2023-04-10T08:31:31;12.30;99.90
59309;DHT22;48433;53.016;-2.260;2023-04-10T08:33:59;12.60;99.90
59309;DHT22;48433;53.016;-2.260;2023-04-10T08:36:27;12.60;99.90
59309;DHT22;48433;53.016;-2.260;2023-04-10T08:38:55;12.60;99.90
59309;DHT22;48433;53.016;-2.260;2023-04-10T08:41:23;12.50;99.90
59309;DHT22;48433;53.016;-2.260;2023-04-10T08:43:50;12.40;99.90
59309;DHT22;48433;53.016;-2.260;2023-04-10T08:46:18;12.40;99.90
59309;DHT22;48433;53.016;-2.260;2023-04-10T08:48:54;12.70;99.90
59309;DHT22;48433;53.016;-2.260;2023-04-10T08:51:31;12.90;99.90
59309;DHT22;48433;53.016;-2.260;2023-04-10T08:54:05;13.30;99.90
59309;DHT22;48433;53.016;-2.260;2023-04-10T08:56:35;13.30;99.90
59309;DHT22;48433;53.016;-2.260;2023-04-10T08:59:04;13.20;99.90
59309;DHT22;48433;53.016;-2.260;2023-04-10T09:01:32;13.10;99.90
59309;DHT22;48433;53.016;-2.260;2023-04-10T09:04:01;13.00;99.90
59309;DHT22;48433;53.016;-2.260;2023-04-10T09:06:29;13.00;99.90
59309;DHT22;48433;53.016;-2.260;2023-04-10T09:08:58;13.00;99.90
59309;DHT22;48433;53.016;-2.260;2023-04-10T09:14:22;13.10;99.90
59309;DHT22;48433;53.016;-2.260;2023-04-10T09:16:52;13.10;99.90
59309;DHT22;48433;53.016;-2.260;2023-04-10T09:19:28;13.00;99.90
59309;DHT22;48433;53.016;-2.260;2023-04-10T09:21:57;13.00;99.90
59309;DHT22;48433;53.016;-2.260;2023-04-10T09:24:25;13.00;99.90
59309;DHT22;48433;53.016;-2.260;2023-04-10T09:26:53;13.00;99.90
59309;DHT22;48433;53.016;-2.260;2023-04-10T09:29:21;13.00;99.90
59309;DHT22;48433;53.016;-2.260;2023-04-10T09:31:49;12.90;99.90
59309;DHT22;48433;53.016;-2.260;2023-04-10T09:34:19;13.30;99.90
59309;DHT22;48433;53.016;-2.260;2023-04-10T09:36:54;13.50;99.90
59309;DHT22;48433;53.016;-2.260;2023-04-10T09:39:37;13.90;99.90
59309;DHT22;48433;53.016;-2.260;2023-04-10T09:42:10;14.30;99.90
59309;DHT22;48433;53.016;-2.260;2023-04-10T09:44:41;15.10;99.90
59309;DHT22;48433;53.016;-2.260;2023-04-10T09:47:18;15.30;99.90
59309;DHT22;48433;53.016;-2.260;2023-04-10T09:49:52;15.50;99.90
59309;DHT22;48433;53.016;-2.260;2023-04-10T09:52:29;15.60;99.90
59309;DHT22;48433;53.016;-2.260;2023-04-10T09:55:02;16.00;99.90
59309;DHT22;48433;53.016;-2.260;2023-04-10T09:57:35;15.90;99.90
59309;DHT22;48433;53.016;-2.260;2023-04-10T10:00:04;15.90;99.90
59309;DHT22;48433;53.016;-2.260;2023-04-10T10:02:35;15.60;99.90
59309;DHT22;48433;53.016;-2.260;2023-04-10T10:05:06;15.60;99.90
59309;DHT22;48433;53.016;-2.260;2023-04-10T10:07:34;15.80;99.90
59309;DHT22;48433;53.016;-2.260;2023-04-10T10:10:03;16.10;99.90
59309;DHT22;48433;53.016;-2.260;2023-04-10T10:13:01;16.10;99.90
59309;DHT22;48433;53.016;-2.260;2023-04-10T10:15:45;16.70;99.90
59309;DHT22;48433;53.016;-2.260;2023-04-10T10:18:41;17.10;99.90
59309;DHT22;48433;53.016;-2.260;2023-04-10T10:21:12;17.60;99.90
59309;DHT22;48433;53.016;-2.260;2023-04-10T10:23:41;18.50;99.90
59309;DHT22;48433;53.016;-2.260;2023-04-10T10:26:11;18.50;99.90
59309;DHT22;48433;53.016;-2.260;2023-04-10T10:28:40;19.00;99.90
59309;DHT22;48433;53.016;-2.260;2023-04-10T10:31:08;18.90;99.90
59309;DHT22;48433;53.016;-2.260;2023-04-10T10:33:37;17.70;99.90
59309;DHT22;48433;53.016;-2.260;2023-04-10T10:36:05;17.70;99.90
59309;DHT22;48433;53.016;-2.260;2023-04-10T10:38:33;17.00;99.90
59309;DHT22;48433;53.016;-2.260;2023-04-10T10:41:19;16.50;99.90
59309;DHT22;48433;53.016;-2.260;2023-04-10T10:47:00;15.80;99.90
59309;DHT22;48433;53.016;-2.260;2023-04-10T10:49:53;15.40;99.90
59309;DHT22;48433;53.016;-2.260;2023-04-10T10:52:44;15.00;99.90
59309;DHT22;48433;53.016;-2.260;2023-04-10T10:58:06;14.70;99.90
59309;DHT22;48433;53.016;-2.260;2023-04-10T11:06:00;14.40;99.90
59309;DHT22;48433;53.016;-2.260;2023-04-10T11:11:01;13.90;99.90
59309;DHT22;48433;53.016;-2.260;2023-04-10T11:16:20;12.50;99.90
59309;DHT22;48433;53.016;-2.260;2023-04-10T11:21:29;10.70;99.90
59309;DHT22;48433;53.016;-2.260;2023-04-10T11:26:38;12.00;99.90
59309;DHT22;48433;53.016;-2.260;2023-04-10T11:31:44;9.70;99.90
59309;DHT22;48433;53.016;-2.260;2023-04-10T11:34:12;9.90;99.90
59309;DHT22;48433;53.016;-2.260;2023-04-10T11:36:43;9.90;99.90
59309;DHT22;48433;53.016;-2.260;2023-04-10T11:39:12;10.00;99.90
59309;DHT22;48433;53.016;-2.260;2023-04-10T11:41:50;10.10;99.90
59309;DHT22;48433;53.016;-2.260;2023-04-10T11:46:54;10.20;99.90
59309;DHT22;48433;53.016;-2.260;2023-04-10T11:49:24;10.30;99.90
59309;DHT22;48433;53.016;-2.260;2023-04-10T11:51:53;10.40;99.90
59309;DHT22;48433;53.016;-2.260;2023-04-10T11:54:22;10.60;99.90
59309;DHT22;48433;53.016;-2.260;2023-04-10T11:59:26;11.30;99.90
59309;DHT22;48433;53.016;-2.260;2023-04-10T12:02:14;12.20;99.90
59309;DHT22;48433;53.016;-2.260;2023-04-10T12:04:43;13.40;99.90
59309;DHT22;48433;53.016;-2.260;2023-04-10T12:07:11;13.60;99.90
59309;DHT22;48433;53.016;-2.260;2023-04-10T12:09:38;14.00;99.90
59309;DHT22;48433;53.016;-2.260;2023-04-10T12:12:07;14.60;99.90
59309;DHT22;48433;53.016;-2.260;2023-04-10T12:14:39;14.60;99.90
59309;DHT22;48433;53.016;-2.260;2023-04-10T12:17:10;14.50;99.90
59309;DHT22;48433;53.016;-2.260;2023-04-10T12:19:39;13.60;99.90
59309;DHT22;48433;53.016;-2.260;2023-04-10T12:22:09;13.60;99.90
59309;DHT22;48433;53.016;-2.260;2023-04-10T12:24:42;13.10;99.90
59309;DHT22;48433;53.016;-2.260;2023-04-10T12:27:26;13.00;99.90
59309;DHT22;48433;53.016;-2.260;2023-04-10T12:29:57;12.80;99.90
59309;DHT22;48433;53.016;-2.260;2023-04-10T12:32:25;12.50;99.90
59309;DHT22;48433;53.016;-2.260;2023-04-10T12:34:57;12.40;99.90
59309;DHT22;48433;53.016;-2.260;2023-04-10T12:37:46;12.40;99.90
59309;DHT22;48433;53.016;-2.260;2023-04-10T12:40:14;12.40;99.90
59309;DHT22;48433;53.016;-2.260;2023-04-10T12:42:42;12.60;99.90
59309;DHT22;48433;53.016;-2.260;2023-04-10T12:45:10;12.60;99.90
59309;DHT22;48433;53.016;-2.260;2023-04-10T12:47:48;12.70;99.90
59309;DHT22;48433;53.016;-2.260;2023-04-10T12:50:19;12.60;99.90
59309;DHT22;48433;53.016;-2.260;2023-04-10T12:53:04;12.60;99.90
59309;DHT22;48433;53.016;-2.260;2023-04-10T12:55:34;12.70;99.90
59309;DHT22;48433;53.016;-2.260;2023-04-10T12:58:17;13.00;99.90
59309;DHT22;48433;53.016;-2.260;2023-04-10T13:00:47;13.20;99.90
59309;DHT22;48433;53.016;-2.260;2023-04-10T13:03:15;13.80;99.90
59309;DHT22;48433;53.016;-2.260;2023-04-10T13:05:43;14.50;99.90
59309;DHT22;48433;53.016;-2.260;2023-04-10T13:08:11;15.00;99.90
59309;DHT22;48433;53.016;-2.260;2023-04-10T13:10:39;15.60;99.90
59309;DHT22;48433;53.016;-2.260;2023-04-10T13:13:08;16.30;99.90
59309;DHT22;48433;53.016;-2.260;2023-04-10T13:15:39;17.10;99.90
59309;DHT22;48433;53.016;-2.260;2023-04-10T13:18:07;17.40;99.90
59309;DHT22;48433;53.016;-2.260;2023-04-10T13:20:38;17.10;99.90
59309;DHT22;48433;53.016;-2.260;2023-04-10T13:23:06;16.70;99.90
59309;DHT22;48433;53.016;-2.260;2023-04-10T13:25:37;16.80;99.90
59309;DHT22;48433;53.016;-2.260;2023-04-10T13:28:07;16.90;99.90
59309;DHT22;48433;53.016;-2.260;2023-04-10T13:30:39;16.80;99.90
59309;DHT22;48433;53.016;-2.260;2023-04-10T13:33:07;16.30;99.90
59309;DHT22;48433;53.016;-2.260;2023-04-10T13:35:35;16.40;99.90
59309;DHT22;48433;53.016;-2.260;2023-04-10T13:38:03;16.80;99.90
59309;DHT22;48433;53.016;-2.260;2023-04-10T13:40:31;17.10;99.90
59309;DHT22;48433;53.016;-2.260;2023-04-10T13:42:59;17.30;99.90
59309;DHT22;48433;53.016;-2.260;2023-04-10T13:45:27;17.50;99.90
59309;DHT22;48433;53.016;-2.260;2023-04-10T13:47:54;17.50;99.90
59309;DHT22;48433;53.016;-2.260;2023-04-10T13:50:22;17.30;99.90
59309;DHT22;48433;53.016;-2.260;2023-04-10T13:52:50;16.70;99.90
59309;DHT22;48433;53.016;-2.260;2023-04-10T13:55:19;16.00;99.90
59309;DHT22;48433;53.016;-2.260;2023-04-10T13:57:47;15.70;99.90
59309;DHT22;48433;53.016;-2.260;2023-04-10T14:00:15;15.10;99.90
59309;DHT22;48433;53.016;-2.260;2023-04-10T14:02:44;14.90;99.90
59309;DHT22;48433;53.016;-2.260;2023-04-10T14:05:12;14.90;99.90
59309;DHT22;48433;53.016;-2.260;2023-04-10T14:07:39;14.80;99.90
59309;DHT22;48433;53.016;-2.260;2023-04-10T14:10:07;14.50;99.90
59309;DHT22;48433;53.016;-2.260;2023-04-10T14:12:35;14.30;99.90
59309;DHT22;48433;53.016;-2.260;2023-04-10T14:15:04;14.10;99.90
59309;DHT22;48433;53.016;-2.260;2023-04-10T14:17:32;13.90;99.90
59309;DHT22;48433;53.016;-2.260;2023-04-10T14:20:00;13.40;99.90
59309;DHT22;48433;53.016;-2.260;2023-04-10T14:22:28;12.80;99.90
59309;DHT22;48433;53.016;-2.260;2023-04-10T14:24:58;12.10;99.90
59309;DHT22;48433;53.016;-2.260;2023-04-10T14:27:39;11.90;99.90
59309;DHT22;48433;53.016;-2.260;2023-04-10T14:30:07;11.60;99.90
59309;DHT22;48433;53.016;-2.260;2023-04-10T14:32:36;11.70;99.90
59309;DHT22;48433;53.016;-2.260;2023-04-10T14:35:04;12.10;99.90
59309;DHT22;48433;53.016;-2.260;2023-04-10T14:37:32;12.00;99.90
59309;DHT22;48433;53.016;-2.260;2023-04-10T14:40:00;11.90;99.90
59309;DHT22;48433;53.016;-2.260;2023-04-10T14:42:27;11.80;99.90
59309;DHT22;48433;53.016;-2.260;2023-04-10T14:44:55;11.70;99.90
59309;DHT22;48433;53.016;-2.260;2023-04-10T14:47:25;11.60;99.90
59309;DHT22;48433;53.016;-2.260;2023-04-10T14:49:53;11.50;99.90
59309;DHT22;48433;53.016;-2.260;2023-04-10T14:52:20;11.50;99.90
59309;DHT22;48433;53.016;-2.260;2023-04-10T14:54:48;11.50;99.90
59309;DHT22;48433;53.016;-2.260;2023-04-10T14:57:15;11.50;99.90
59309;DHT22;48433;53.016;-2.260;2023-04-10T14:59:43;11.50;99.90
59309;DHT22;48433;53.016;-2.260;2023-04-10T15:02:11;11.60;99.90
59309;DHT22;48433;53.016;-2.260;2023-04-10T15:04:38;11.50;99.90
59309;DHT22;48433;53.016;-2.260;2023-04-10T15:07:06;11.50;99.90
59309;DHT22;48433;53.016;-2.260;2023-04-10T15:09:34;11.40;99.90
59309;DHT22;48433;53.016;-2.260;2023-04-10T15:12:01;11.10;99.90
59309;DHT22;48433;53.016;-2.260;2023-04-10T15:14:29;10.50;99.90
59309;DHT22;48433;53.016;-2.260;2023-04-10T15:16:57;10.50;99.90
59309;DHT22;48433;53.016;-2.260;2023-04-10T15:19:25;10.60;99.90
59309;DHT22;48433;53.016;-2.260;2023-04-10T15:21:53;11.00;99.90
59309;DHT22;48433;53.016;-2.260;2023-04-10T15:24:21;12.20;99.90
59309;DHT22;48433;53.016;-2.260;2023-04-10T15:26:49;12.30;99.90
59309;DHT22;48433;53.016;-2.260;2023-04-10T15:29:16;12.30;99.90
59309;DHT22;48433;53.016;-2.260;2023-04-10T15:31:44;12.10;99.90
59309;DHT22;48433;53.016;-2.260;2023-04-10T15:34:12;11.60;99.90
59309;DHT22;48433;53.016;-2.260;2023-04-10T15:36:39;11.60;99.90
59309;DHT22;48433;53.016;-2.260;2023-04-10T15:39:08;11.50;99.90
59309;DHT22;48433;53.016;-2.260;2023-04-10T15:41:36;11.20;99.90
59309;DHT22;48433;53.016;-2.260;2023-04-10T15:44:04;10.70;99.90
59309;DHT22;48433;53.016;-2.260;2023-04-10T15:46:32;10.70;99.90
59309;DHT22;48433;53.016;-2.260;2023-04-10T15:49:01;10.50;99.90
59309;DHT22;48433;53.016;-2.260;2023-04-10T15:51:29;10.50;99.90
59309;DHT22;48433;53.016;-2.260;2023-04-10T15:53:57;10.40;99.90
59309;DHT22;48433;53.016;-2.260;2023-04-10T15:56:25;10.40;99.90
59309;DHT22;48433;53.016;-2.260;2023-04-10T15:58:53;10.40;99.90
59309;DHT22;48433;53.016;-2.260;2023-04-10T16:01:20;10.30;99.90
59309;DHT22;48433;53.016;-2.260;2023-04-10T16:03:48;10.40;99.90
59309;DHT22;48433;53.016;-2.260;2023-04-10T16:06:16;10.50;99.90
59309;DHT22;48433;53.016;-2.260;2023-04-10T16:08:44;10.80;99.90
59309;DHT22;48433;53.016;-2.260;2023-04-10T16:11:11;10.80;99.90
59309;DHT22;48433;53.016;-2.260;2023-04-10T16:13:39;11.00;99.90
59309;DHT22;48433;53.016;-2.260;2023-04-10T16:16:18;11.10;99.90
59309;DHT22;48433;53.016;-2.260;2023-04-10T16:18:46;11.00;99.90
59309;DHT22;48433;53.016;-2.260;2023-04-10T16:21:14;11.00;99.90
59309;DHT22;48433;53.016;-2.260;2023-04-10T16:23:41;10.90;99.90
59309;DHT22;48433;53.016;-2.260;2023-04-10T16:26:09;10.80;99.90
59309;DHT22;48433;53.016;-2.260;2023-04-10T16:28:37;10.50;99.90
59309;DHT22;48433;53.016;-2.260;2023-04-10T16:31:04;10.40;99.90
59309;DHT22;48433;53.016;-2.260;2023-04-10T16:33:32;10.10;99.90